Rhame, North Dakota
Current Conditions -  °F | °C
As of 11:51 AM on Thursday 23 Oct 2014 (Local Time) from KBHK Reporting Station
Clear Clear  
Wind Chill: 64°   Ceiling: Unl
Heat Index: 64°   Visibility: 10mi
Dew Point: 29°   Wind: 12mph
Humidity: 27%   Direction: 260°W
Pressure: 29.89"   Gusts: NA
Location:  46.23°N, 103.66°W
Report Text: KBHK 231751Z AUTO 26010KT 10SM CLR 18/M02 A2989 RMK AO2 SLP121 T01781017 10183 20017 58007
Loading
Personal Weather Stations






























Interactive Weather Map
Tropical Storm Tracking
New forecast layout! Learn more

10-Day Weather Forecast

Advertisements
Track Severe Weather on mobile